createdAt,value
2023-05-05T00:02:23.593Z,99262.28
2023-05-05T00:04:50.052Z,99275.59
2023-05-05T00:07:16.511Z,99266.06
2023-05-05T00:09:43.162Z,99269.41
2023-05-05T00:12:09.587Z,99275.84
2023-05-05T00:14:36.069Z,99265.25
2023-05-05T00:17:02.563Z,99268.88
2023-05-05T00:19:28.992Z,99267.84
2023-05-05T00:21:55.598Z,99269.97
2023-05-05T00:24:22.000Z,99265.81
2023-05-05T00:26:48.386Z,99266.81
2023-05-05T00:29:14.899Z,99270.91
2023-05-05T00:31:41.411Z,99276.09
2023-05-05T00:34:07.930Z,99273.16
2023-05-05T00:36:34.390Z,99263.25
2023-05-05T00:39:01.115Z,99262.59
2023-05-05T00:41:27.581Z,99259.13
2023-05-05T00:43:54.054Z,99270.28
2023-05-05T00:46:26.377Z,99262.81
2023-05-05T00:48:53.076Z,99262.53
2023-05-05T00:51:20.555Z,99261.63
2023-05-05T00:53:47.981Z,99261.06
2023-05-05T00:56:16.053Z,99261.13
2023-05-05T00:58:43.410Z,99266.97
2023-05-05T01:01:11.315Z,99264.03
2023-05-05T01:03:38.831Z,99265.72
2023-05-05T01:06:20.822Z,99268.97
2023-05-05T01:09:01.732Z,99271.66
2023-05-05T01:11:41.241Z,99269.25
2023-05-05T01:14:17.381Z,99261.84
2023-05-05T01:16:52.950Z,99266.97
2023-05-05T01:19:37.991Z,99270.44
2023-05-05T01:22:07.430Z,99271.16
2023-05-05T01:24:42.939Z,99269.53
2023-05-05T01:27:21.554Z,99279.78
2023-05-05T01:30:25.770Z,99272.06
2023-05-05T01:32:56.676Z,99278.66
2023-05-05T01:35:28.706Z,99280.59
2023-05-05T01:38:17.402Z,99278.81
2023-05-05T01:40:47.900Z,99284.78
2023-05-05T01:43:15.987Z,99278.16
2023-05-05T01:45:43.600Z,99279.81
2023-05-05T01:48:12.364Z,99283.56
2023-05-05T01:50:41.733Z,99276.00
2023-05-05T01:53:09.682Z,99278.84
2023-05-05T01:55:36.811Z,99276.50
2023-05-05T01:58:04.447Z,99271.84
2023-05-05T02:00:31.716Z,99277.00
2023-05-05T02:02:59.820Z,99276.41
2023-05-05T02:05:27.173Z,99289.91
2023-05-05T02:07:57.515Z,99294.22
2023-05-05T02:10:24.199Z,99295.38
2023-05-05T02:12:51.145Z,99294.75
2023-05-05T02:15:18.631Z,99302.41
2023-05-05T02:17:45.542Z,99300.06
2023-05-05T02:20:12.906Z,99297.06
2023-05-05T02:22:39.948Z,99293.94
2023-05-05T02:25:06.911Z,99297.25
2023-05-05T02:27:35.407Z,99298.59
2023-05-05T02:30:08.002Z,99298.19
2023-05-05T02:32:37.794Z,99303.03
2023-05-05T02:35:12.631Z,99290.84
2023-05-05T02:37:39.955Z,99300.56
2023-05-05T02:40:08.473Z,99309.94
2023-05-05T02:42:36.769Z,99306.00
2023-05-05T02:45:07.655Z,99299.84
2023-05-05T02:47:36.606Z,99300.53
2023-05-05T02:50:04.258Z,99304.31
2023-05-05T02:52:31.998Z,99305.69
2023-05-05T02:54:59.326Z,99309.19
2023-05-05T02:57:37.869Z,99307.47
2023-05-05T03:00:12.672Z,99310.84
2023-05-05T03:02:54.469Z,99306.41
2023-05-05T03:05:25.492Z,99306.41
2023-05-05T03:08:09.940Z,99306.28
2023-05-05T03:10:44.874Z,99309.09
2023-05-05T03:13:11.835Z,99310.09
2023-05-05T03:15:45.168Z,99314.75
2023-05-05T03:18:12.131Z,99305.81
2023-05-05T03:20:42.357Z,99308.13
2023-05-05T03:23:08.953Z,99309.09
2023-05-05T03:25:45.940Z,99312.69
2023-05-05T03:28:13.448Z,99311.41
2023-05-05T03:30:39.954Z,99314.16
2023-05-05T03:33:06.552Z,99308.56
2023-05-05T03:35:33.563Z,99318.13
2023-05-05T03:37:59.959Z,99314.41
2023-05-05T03:40:36.137Z,99313.75
2023-05-05T03:43:09.713Z,99311.56
2023-05-05T03:45:36.287Z,99317.63
2023-05-05T03:48:03.052Z,99317.94
2023-05-05T03:50:29.528Z,99322.91
2023-05-05T03:52:56.059Z,99327.78
2023-05-05T03:55:22.598Z,99324.38
2023-05-05T03:57:48.978Z,99330.59
2023-05-05T04:00:15.999Z,99325.66
2023-05-05T04:02:43.470Z,99321.16
2023-05-05T04:05:10.033Z,99325.34
2023-05-05T04:07:36.514Z,99320.28
2023-05-05T04:10:02.956Z,99323.63
2023-05-05T04:12:29.339Z,99326.34
2023-05-05T04:14:55.884Z,99324.34
2023-05-05T04:17:22.279Z,99331.25
2023-05-05T04:19:48.669Z,99324.56
2023-05-05T04:22:15.152Z,99329.09
2023-05-05T04:24:41.577Z,99334.75
2023-05-05T04:27:07.974Z,99335.09
2023-05-05T04:29:34.451Z,99331.59
2023-05-05T04:32:01.055Z,99337.88
2023-05-05T04:34:27.520Z,99337.84
2023-05-05T04:36:54.224Z,99333.66
2023-05-05T04:39:20.632Z,99334.50
2023-05-05T04:41:47.243Z,99335.81
2023-05-05T04:44:13.669Z,99336.44
2023-05-05T04:46:40.190Z,99336.19
2023-05-05T04:49:06.884Z,99329.84
2023-05-05T04:51:33.394Z,99336.56
2023-05-05T04:53:59.955Z,99332.16
2023-05-05T04:56:26.420Z,99344.16
2023-05-05T04:58:52.862Z,99332.03
2023-05-05T05:01:19.282Z,99332.41
2023-05-05T05:03:45.943Z,99343.66
2023-05-05T05:06:12.507Z,99338.50
2023-05-05T05:08:38.968Z,99339.44
2023-05-05T05:11:05.429Z,99335.16
2023-05-05T05:13:32.348Z,99342.78
2023-05-05T05:15:58.814Z,99352.31
2023-05-05T05:18:25.238Z,99346.53
2023-05-05T05:20:51.675Z,99352.69
2023-05-05T05:23:18.110Z,99352.22
2023-05-05T05:25:44.663Z,99349.47
2023-05-05T05:28:11.241Z,99357.38
2023-05-05T05:30:37.667Z,99362.19
2023-05-05T05:33:04.109Z,99370.28
2023-05-05T05:35:31.478Z,99375.38
2023-05-05T05:37:58.006Z,99370.00
2023-05-05T05:40:24.452Z,99376.16
2023-05-05T05:42:50.894Z,99377.34
2023-05-05T05:45:17.415Z,99374.31
2023-05-05T05:47:43.890Z,99378.47
2023-05-05T05:50:11.056Z,99378.50
2023-05-05T05:52:37.748Z,99377.34
2023-05-05T05:55:04.560Z,99377.34
2023-05-05T05:57:31.343Z,99375.19
2023-05-05T05:59:58.844Z,99374.41
2023-05-05T06:02:28.481Z,99380.72
2023-05-05T06:04:55.135Z,99373.16
2023-05-05T06:07:21.560Z,99377.84
2023-05-05T06:09:47.980Z,99375.00
2023-05-05T06:12:14.409Z,99380.66
2023-05-05T06:14:41.143Z,99373.25
2023-05-05T06:17:07.547Z,99373.25
2023-05-05T06:19:34.465Z,99377.69
2023-05-05T06:22:00.928Z,99382.44
2023-05-05T06:24:27.309Z,99375.91
2023-05-05T06:26:53.823Z,99385.66
2023-05-05T06:29:20.321Z,99379.25
2023-05-05T06:31:47.031Z,99385.06
2023-05-05T06:34:13.534Z,99381.19
2023-05-05T06:36:40.006Z,99380.09
2023-05-05T06:39:06.432Z,99389.09
2023-05-05T06:41:32.856Z,99383.78
2023-05-05T06:43:59.352Z,99379.28
2023-05-05T06:46:26.312Z,99384.31
2023-05-05T06:48:52.962Z,99382.72
2023-05-05T06:51:19.730Z,99383.84
2023-05-05T06:53:46.182Z,99389.47
2023-05-05T06:56:12.698Z,99391.25
2023-05-05T06:58:39.153Z,99389.13
2023-05-05T07:01:05.789Z,99386.34
2023-05-05T07:03:32.228Z,99383.19
2023-05-05T07:05:58.655Z,99380.56
2023-05-05T07:08:25.382Z,99382.03
2023-05-05T07:10:52.006Z,99382.63
2023-05-05T07:13:18.541Z,99390.94
2023-05-05T07:15:46.540Z,99388.34
2023-05-05T07:18:14.155Z,99388.41
2023-05-05T07:20:40.996Z,99390.66
2023-05-05T07:23:07.505Z,99390.25
2023-05-05T07:25:33.987Z,99395.94
2023-05-05T07:28:00.597Z,99387.09
2023-05-05T07:30:27.100Z,99392.78
2023-05-05T07:32:54.734Z,99386.09
2023-05-05T07:35:21.461Z,99382.16
2023-05-05T07:37:47.886Z,99386.81
2023-05-05T07:40:14.435Z,99382.53
2023-05-05T07:42:40.997Z,99390.22
2023-05-05T07:45:07.878Z,99385.91
2023-05-05T07:47:34.362Z,99384.44
2023-05-05T07:50:01.420Z,99381.66
2023-05-05T07:52:43.602Z,99374.00
2023-05-05T07:55:11.620Z,99372.25
2023-05-05T07:57:38.682Z,99377.69
2023-05-05T08:00:05.940Z,99373.22
2023-05-05T08:02:32.566Z,99375.03
2023-05-05T08:04:59.041Z,99376.88
2023-05-05T08:07:25.499Z,99371.56
2023-05-05T08:09:51.948Z,99370.97
2023-05-05T08:12:19.112Z,99361.00
2023-05-05T08:14:45.533Z,99361.06
2023-05-05T08:17:12.035Z,99360.97
2023-05-05T08:19:38.438Z,99365.72
2023-05-05T08:22:04.928Z,99362.78
2023-05-05T08:24:31.427Z,99368.41
2023-05-05T08:26:57.940Z,99364.69
2023-05-05T08:29:24.366Z,99362.66
2023-05-05T08:31:51.158Z,99367.84
2023-05-05T08:34:17.832Z,99367.72
2023-05-05T08:36:44.246Z,99371.56
2023-05-05T08:39:10.693Z,99367.22
2023-05-05T08:41:37.191Z,99368.31
2023-05-05T08:44:03.717Z,99368.41
2023-05-05T08:46:31.211Z,99371.00
2023-05-05T08:48:58.833Z,99362.91
2023-05-05T08:51:28.456Z,99369.06
2023-05-05T08:53:54.803Z,99375.00
2023-05-05T08:56:24.782Z,99375.19
2023-05-05T08:58:51.515Z,99376.16
2023-05-05T09:01:18.539Z,99373.56
2023-05-05T09:03:46.249Z,99379.72
2023-05-05T09:06:12.713Z,99373.56
2023-05-05T09:08:39.329Z,99371.97
2023-05-05T09:11:06.206Z,99378.09
2023-05-05T09:13:32.781Z,99371.16
2023-05-05T09:15:59.523Z,99375.56
2023-05-05T09:18:26.414Z,99373.81
2023-05-05T09:20:53.078Z,99377.34
2023-05-05T09:23:20.178Z,99373.75
2023-05-05T09:25:48.220Z,99372.13
2023-05-05T09:28:17.640Z,99374.78
2023-05-05T09:30:46.779Z,99373.91
2023-05-05T09:33:13.884Z,99374.78
2023-05-05T09:35:51.114Z,99375.66
2023-05-05T09:38:18.372Z,99366.88
2023-05-05T09:40:48.863Z,99365.19
2023-05-05T09:43:16.288Z,99363.41
2023-05-05T09:45:43.264Z,99366.94
2023-05-05T09:48:29.268Z,99365.13
2023-05-05T09:50:56.519Z,99362.56
2023-05-05T09:53:23.987Z,99363.38
2023-05-05T09:55:58.168Z,99359.91
2023-05-05T09:58:26.354Z,99352.06
2023-05-05T10:00:53.944Z,99358.09
2023-05-05T10:03:20.872Z,99358.03
2023-05-05T10:05:59.549Z,99358.13
2023-05-05T10:08:28.085Z,99363.19
2023-05-05T10:10:59.466Z,99366.66
2023-05-05T10:13:26.463Z,99364.16
2023-05-05T10:15:54.793Z,99370.22
2023-05-05T10:18:23.500Z,99358.66
2023-05-05T10:20:57.537Z,99352.50
2023-05-05T10:23:26.689Z,99348.03
2023-05-05T10:25:55.681Z,99354.38
2023-05-05T10:28:50.812Z,99364.09
2023-05-05T10:31:26.433Z,99353.41
2023-05-05T10:33:55.937Z,99333.31
2023-05-05T10:36:23.210Z,99335.47
2023-05-05T10:38:50.722Z,99338.94
2023-05-05T10:41:18.547Z,99336.31
2023-05-05T10:43:45.847Z,99336.06
2023-05-05T10:46:12.616Z,99335.44
2023-05-05T10:48:56.121Z,99317.97
2023-05-05T10:51:40.053Z,99327.41
2023-05-05T10:54:17.952Z,99318.63
2023-05-05T10:56:44.562Z,99314.16
2023-05-05T10:59:39.682Z,99316.59
2023-05-05T11:02:24.598Z,99316.25
2023-05-05T11:05:09.705Z,99321.72
2023-05-05T11:07:37.136Z,99318.25
2023-05-05T11:10:07.948Z,99321.91
2023-05-05T11:13:01.892Z,99325.63
2023-05-05T11:15:28.730Z,99316.16
2023-05-05T11:17:56.595Z,99298.75
2023-05-05T11:20:35.747Z,99309.19
2023-05-05T11:23:02.051Z,99297.94
2023-05-05T11:25:34.503Z,99294.38
2023-05-05T11:28:11.512Z,99299.53
2023-05-05T11:30:59.665Z,99286.28
2023-05-05T11:33:29.941Z,99288.00
2023-05-05T11:36:07.342Z,99287.06
2023-05-05T11:38:52.871Z,99280.88
2023-05-05T11:41:31.930Z,99277.41
2023-05-05T11:44:20.572Z,99275.63
2023-05-05T11:46:53.066Z,99273.75
2023-05-05T11:49:38.729Z,99273.69
2023-05-05T11:52:08.120Z,99278.88
2023-05-05T11:54:36.119Z,99280.56
2023-05-05T11:57:05.407Z,99287.69
2023-05-05T11:59:32.742Z,99281.16
2023-05-05T12:01:59.522Z,99282.78
2023-05-05T12:04:26.122Z,99280.91
2023-05-05T12:06:52.535Z,99277.53
2023-05-05T12:09:20.192Z,99275.03
2023-05-05T12:11:54.256Z,99275.03
2023-05-05T12:14:21.405Z,99271.59
2023-05-05T12:17:14.369Z,99269.75
2023-05-05T12:19:48.661Z,99267.03
2023-05-05T12:22:19.515Z,99258.50
2023-05-05T12:24:54.436Z,99259.31
2023-05-05T12:27:21.633Z,99268.00
2023-05-05T12:29:48.161Z,99272.44
2023-05-05T12:32:22.469Z,99267.31
2023-05-05T12:34:50.745Z,99269.06
2023-05-05T12:37:19.015Z,99264.72
2023-05-05T12:39:45.594Z,99265.56
2023-05-05T12:42:12.134Z,99263.88
2023-05-05T12:44:39.159Z,99263.84
2023-05-05T12:47:06.997Z,99256.81
2023-05-05T12:49:50.696Z,99256.00
2023-05-05T12:52:18.240Z,99256.91
2023-05-05T12:54:55.087Z,99252.50
2023-05-05T12:57:22.294Z,99263.91
2023-05-05T12:59:49.152Z,99270.00
2023-05-05T13:02:16.339Z,99277.03
2023-05-05T13:04:50.642Z,99273.53
2023-05-05T13:07:19.499Z,99277.91
2023-05-05T13:09:48.024Z,99276.16
2023-05-05T13:12:15.648Z,99277.00
2023-05-05T13:14:42.224Z,99277.00
2023-05-05T13:17:09.137Z,99274.38
2023-05-05T13:19:41.582Z,99276.13
2023-05-05T13:22:09.119Z,99283.00
2023-05-05T13:24:49.827Z,99279.38
2023-05-05T13:27:18.851Z,99281.13
2023-05-05T13:29:45.310Z,99289.88
2023-05-05T13:32:11.787Z,99290.75
2023-05-05T13:34:39.247Z,99291.47
2023-05-05T13:37:06.133Z,99293.06
2023-05-05T13:39:32.662Z,99310.50
2023-05-05T13:41:59.126Z,99295.94
2023-05-05T13:44:25.614Z,99350.75
2023-05-05T13:46:52.047Z,99366.88
2023-05-05T13:49:18.526Z,99370.44
2023-05-05T13:51:46.704Z,99380.84
2023-05-05T13:54:13.254Z,99372.59
2023-05-05T13:56:39.828Z,99368.47
2023-05-05T13:59:06.245Z,99374.56
2023-05-05T14:01:32.766Z,99374.03
2023-05-05T14:03:59.454Z,99374.84
2023-05-05T14:06:26.364Z,99365.25
2023-05-05T14:08:52.876Z,99362.72
2023-05-05T14:11:20.545Z,99349.41
2023-05-05T14:13:47.433Z,99357.47
2023-05-05T14:16:14.164Z,99349.59
2023-05-05T14:18:40.934Z,99347.16
2023-05-05T14:21:07.507Z,99341.75
2023-05-05T14:23:33.942Z,99340.72
2023-05-05T14:26:00.750Z,99328.81
2023-05-05T14:28:27.151Z,99319.03
2023-05-05T14:30:53.692Z,99309.66
2023-05-05T14:33:20.250Z,99312.25
2023-05-05T14:35:46.646Z,99311.31
2023-05-05T14:38:13.074Z,99304.47
2023-05-05T14:40:39.517Z,99295.41
2023-05-05T14:43:06.124Z,99292.59
2023-05-05T14:45:32.686Z,99281.63
2023-05-05T14:47:59.223Z,99275.44
2023-05-05T14:50:25.686Z,99273.19
2023-05-05T14:52:52.347Z,99277.88
2023-05-05T14:55:18.897Z,99272.97
2023-05-05T14:57:45.300Z,99275.16
2023-05-05T15:00:12.689Z,99275.41
2023-05-05T15:02:39.140Z,99286.22
2023-05-05T15:05:06.181Z,99289.50
2023-05-05T15:07:32.675Z,99294.63
2023-05-05T15:09:59.109Z,99278.38
2023-05-05T15:12:25.971Z,99275.16
2023-05-05T15:14:52.397Z,99276.59
2023-05-05T15:17:18.830Z,99273.19
2023-05-05T15:19:45.305Z,99280.19
2023-05-05T15:22:11.731Z,99282.31
2023-05-05T15:24:38.276Z,99279.63
2023-05-05T15:27:04.746Z,99277.09
2023-05-05T15:29:31.263Z,99276.03
2023-05-05T15:31:57.861Z,99268.69
2023-05-05T15:34:24.334Z,99269.25
2023-05-05T15:36:50.746Z,99271.06
2023-05-05T15:39:17.704Z,99279.91
2023-05-05T15:41:44.154Z,99271.34
2023-05-05T15:44:12.164Z,99275.47
2023-05-05T15:46:39.727Z,99275.94
2023-05-05T15:49:06.316Z,99279.16
2023-05-05T15:51:32.751Z,99271.34
2023-05-05T15:54:00.186Z,99268.75
2023-05-05T15:56:29.578Z,99264.66
2023-05-05T15:58:56.687Z,99262.78
2023-05-05T16:01:23.252Z,99267.22
2023-05-05T16:03:49.740Z,99259.47
2023-05-05T16:06:16.232Z,99268.19
2023-05-05T16:08:42.723Z,99266.25
2023-05-05T16:11:09.279Z,99269.66
2023-05-05T16:13:35.781Z,99279.09
2023-05-05T16:16:02.192Z,99274.72
2023-05-05T16:18:28.621Z,99275.25
2023-05-05T16:20:55.083Z,99284.19
2023-05-05T16:23:22.571Z,99291.09
2023-05-05T16:25:49.053Z,99288.34
2023-05-05T16:28:15.483Z,99293.56
2023-05-05T16:30:43.162Z,99282.38
2023-05-05T16:33:09.688Z,99291.00
2023-05-05T16:35:36.198Z,99289.19
2023-05-05T16:38:02.632Z,99287.28
2023-05-05T16:40:29.347Z,99289.16
2023-05-05T16:42:55.788Z,99292.47
2023-05-05T16:45:22.558Z,99294.28
2023-05-05T16:47:49.079Z,99279.53
2023-05-05T16:50:17.292Z,99291.75
2023-05-05T16:52:43.811Z,99285.56
2023-05-05T16:55:10.470Z,99297.34
2023-05-05T16:57:37.088Z,99289.78
2023-05-05T17:00:05.141Z,99293.22
2023-05-05T17:02:31.667Z,99282.72
2023-05-05T17:04:58.169Z,99285.63
2023-05-05T17:07:24.650Z,99289.00
2023-05-05T17:09:51.104Z,99290.06
2023-05-05T17:12:17.638Z,99292.56
2023-05-05T17:14:45.406Z,99288.94
2023-05-05T17:17:12.182Z,99296.34
2023-05-05T17:19:38.769Z,99296.00
2023-05-05T17:22:05.341Z,99297.13
2023-05-05T17:24:31.751Z,99300.41
2023-05-05T17:26:58.290Z,99301.88
2023-05-05T17:29:24.719Z,99286.38
2023-05-05T17:31:51.593Z,99281.97
2023-05-05T17:34:18.115Z,99288.25
2023-05-05T17:36:44.593Z,99282.19
2023-05-05T17:39:11.485Z,99281.28
2023-05-05T17:41:37.942Z,99281.28
2023-05-05T17:44:04.628Z,99271.53
2023-05-05T17:46:31.070Z,99279.19
2023-05-05T17:48:57.555Z,99267.97
2023-05-05T17:51:24.062Z,99271.25
2023-05-05T17:53:50.573Z,99272.00
2023-05-05T17:56:17.021Z,99273.66
2023-05-05T17:58:43.458Z,99272.13
2023-05-05T18:01:13.532Z,99285.81
2023-05-05T18:03:41.057Z,99280.31
2023-05-05T18:06:07.699Z,99275.16
2023-05-05T18:08:34.149Z,99275.81
2023-05-05T18:11:01.730Z,99270.56
2023-05-05T18:13:28.242Z,99279.28
2023-05-05T18:15:54.682Z,99282.72
2023-05-05T18:18:21.212Z,99283.66
2023-05-05T18:20:47.791Z,99285.00
2023-05-05T18:23:14.257Z,99282.44
2023-05-05T18:25:41.430Z,99290.28
2023-05-05T18:28:07.904Z,99292.03
2023-05-05T18:30:35.599Z,99291.00
2023-05-05T18:33:02.279Z,99297.91
2023-05-05T18:35:29.256Z,99304.09
2023-05-05T18:37:56.228Z,99307.63
2023-05-05T18:40:22.966Z,99313.66
2023-05-05T18:42:49.604Z,99318.91
2023-05-05T18:45:16.063Z,99319.69
2023-05-05T18:47:42.532Z,99318.78
2023-05-05T18:50:09.922Z,99316.09
2023-05-05T18:52:36.360Z,99311.34
2023-05-05T18:55:02.854Z,99315.59
2023-05-05T18:57:29.644Z,99309.47
2023-05-05T18:59:56.086Z,99320.97
2023-05-05T19:02:22.516Z,99313.44
2023-05-05T19:04:49.293Z,99320.13
2023-05-05T19:07:27.660Z,99326.22
2023-05-05T19:10:00.662Z,99329.16
2023-05-05T19:12:27.122Z,99325.63
2023-05-05T19:14:53.549Z,99330.81
2023-05-05T19:17:19.948Z,99338.34
2023-05-05T19:19:46.357Z,99327.91
2023-05-05T19:22:12.827Z,99335.41
2023-05-05T19:24:39.239Z,99333.06
2023-05-05T19:27:07.031Z,99344.53
2023-05-05T19:29:33.741Z,99344.47
2023-05-05T19:32:00.259Z,99344.84
2023-05-05T19:34:26.916Z,99344.63
2023-05-05T19:36:53.359Z,99349.41
2023-05-05T19:39:19.853Z,99345.06
2023-05-05T19:41:46.471Z,99349.38
2023-05-05T19:44:12.982Z,99348.78
2023-05-05T19:46:39.550Z,99350.41
2023-05-05T19:49:06.178Z,99357.56
2023-05-05T19:51:32.585Z,99361.72
2023-05-05T19:53:59.443Z,99365.44
2023-05-05T19:56:26.187Z,99373.03
2023-05-05T19:59:00.780Z,99371.38
2023-05-05T20:01:28.616Z,99378.22
2023-05-05T20:03:56.367Z,99376.31
2023-05-05T20:06:23.229Z,99370.38
2023-05-05T20:08:49.957Z,99372.78
2023-05-05T20:11:16.940Z,99377.53
2023-05-05T20:13:43.788Z,99382.97
2023-05-05T20:16:10.410Z,99372.34
2023-05-05T20:18:36.879Z,99367.22
2023-05-05T20:21:03.522Z,99373.03
2023-05-05T20:23:30.335Z,99377.94
2023-05-05T20:25:56.723Z,99372.13
2023-05-05T20:28:23.375Z,99373.25
2023-05-05T20:30:49.775Z,99366.13
2023-05-05T20:33:16.444Z,99365.22
2023-05-05T20:35:42.909Z,99375.91
2023-05-05T20:38:09.779Z,99380.63
2023-05-05T20:40:36.777Z,99383.13
2023-05-05T20:43:03.261Z,99386.69
2023-05-05T20:45:31.632Z,99382.09
2023-05-05T20:47:58.572Z,99384.56
2023-05-05T20:50:25.151Z,99391.81
2023-05-05T20:52:51.570Z,99388.47
2023-05-05T20:55:17.983Z,99385.47
2023-05-05T20:57:44.391Z,99393.13
2023-05-05T21:00:11.435Z,99383.09
2023-05-05T21:02:38.173Z,99393.63
2023-05-05T21:05:05.226Z,99397.38
2023-05-05T21:07:34.152Z,99394.75
2023-05-05T21:10:04.830Z,99398.19
2023-05-05T21:12:31.556Z,99399.19
2023-05-05T21:14:58.798Z,99391.53
2023-05-05T21:17:26.103Z,99401.47
2023-05-05T21:19:53.207Z,99409.25
2023-05-05T21:22:19.830Z,99399.53
2023-05-05T21:24:46.275Z,99401.09
2023-05-05T21:27:13.402Z,99402.47
2023-05-05T21:29:39.835Z,99395.81
2023-05-05T21:32:10.644Z,99397.31
2023-05-05T21:34:38.312Z,99400.84
2023-05-05T21:37:05.124Z,99407.13
2023-05-05T21:39:33.008Z,99402.78
2023-05-05T21:42:00.623Z,99405.22
2023-05-05T21:44:28.146Z,99405.22
2023-05-05T21:46:55.143Z,99402.34
2023-05-05T21:49:21.692Z,99400.88
2023-05-05T21:51:48.271Z,99396.53
2023-05-05T21:54:14.741Z,99403.13
2023-05-05T21:56:41.295Z,99403.72
2023-05-05T21:59:07.753Z,99399.97
2023-05-05T22:01:34.695Z,99394.22
2023-05-05T22:04:01.539Z,99403.06
2023-05-05T22:06:28.049Z,99394.56
2023-05-05T22:08:54.502Z,99391.66
2023-05-05T22:11:21.625Z,99387.41
2023-05-05T22:13:48.039Z,99396.41
2023-05-05T22:16:18.429Z,99385.53
2023-05-05T22:18:45.229Z,99388.22
2023-05-05T22:21:11.681Z,99390.13
2023-05-05T22:23:39.005Z,99398.53
2023-05-05T22:26:05.518Z,99392.47
2023-05-05T22:28:31.945Z,99389.34
2023-05-05T22:30:58.370Z,99390.34
2023-05-05T22:33:24.974Z,99391.94
2023-05-05T22:35:51.964Z,99405.94
2023-05-05T22:38:18.407Z,99397.84
2023-05-05T22:40:45.136Z,99404.88
2023-05-05T22:43:11.695Z,99397.38
2023-05-05T22:45:38.502Z,99393.84
2023-05-05T22:48:05.374Z,99398.38
2023-05-05T22:50:31.917Z,99385.78
2023-05-05T22:52:58.336Z,99384.16
2023-05-05T22:55:24.893Z,99388.31
2023-05-05T22:57:52.541Z,99384.50
2023-05-05T23:00:19.131Z,99389.91
2023-05-05T23:02:45.878Z,99379.38
2023-05-05T23:05:12.629Z,99385.50
2023-05-05T23:07:39.268Z,99375.41
2023-05-05T23:10:06.302Z,99378.09
2023-05-05T23:12:32.777Z,99378.50
2023-05-05T23:14:59.193Z,99372.44
2023-05-05T23:17:25.760Z,99381.25
2023-05-05T23:19:52.246Z,99377.19
2023-05-05T23:22:18.687Z,99383.34
2023-05-05T23:24:45.146Z,99381.16
2023-05-05T23:27:12.454Z,99381.03
2023-05-05T23:29:39.037Z,99375.19
2023-05-05T23:32:05.816Z,99378.00
2023-05-05T23:34:32.208Z,99374.47
2023-05-05T23:36:58.606Z,99377.22
2023-05-05T23:39:25.096Z,99373.22
2023-05-05T23:41:51.473Z,99380.03
2023-05-05T23:44:17.961Z,99382.16
2023-05-05T23:46:44.396Z,99372.66
2023-05-05T23:49:10.864Z,99370.78
2023-05-05T23:51:37.308Z,99365.75
2023-05-05T23:54:04.079Z,99368.22
2023-05-05T23:56:30.581Z,99362.94
2023-05-05T23:58:56.976Z,99372.50
